| time (UTC) | temp F | wind direction | speed MPH | gust MPH | rain 1hr in | rain 24hr in | rain mn in | humidity % | barometer mb |
| 20260906171005 | 59 | 145 | 0.0 | 4.0 | 0.00 | 0.07 | 0.00 | 81 | 1025.9 |
| 20260906170016 | 60 | 143 | 1.0 | 4.0 | 0.00 | 0.07 | 0.00 | 80 | 1025.9 |
| 20260906164006 | 60 | 130 | 0.0 | 4.0 | 0.00 | 0.07 | 0.00 | 80 | 1025.9 |
| 20260906163007 | 60 | 185 | 1.0 | 6.0 | 0.00 | 0.07 | 0.00 | 79 | 1025.5 |
| 20260906162005 | 61 | 112 | 0.0 | 7.0 | 0.00 | 0.07 | 0.00 | 78 | 1025.6 |
| 20260906161022 | 62 | 125 | 1.0 | 8.0 | 0.00 | 0.08 | 0.00 | 77 | 1025.6 |
| 20260906155012 | 64 | 352 | 2.0 | 8.0 | 0.00 | 0.14 | 0.00 | 73 | 1025.3 |
| 20260906154006 | 64 | 107 | 3.0 | 7.0 | 0.00 | 0.14 | 0.00 | 72 | 1025.1 |
| 20260906153006 | 64 | 160 | 0.0 | 7.0 | 0.00 | 0.14 | 0.00 | 74 | 1025.3 |
| 20260906152007 | 62 | 18 | 1.0 | 6.0 | 0.00 | 0.14 | 0.00 | 76 | 1025.4 |
| 20260906151005 | 65 | 147 | 2.0 | 10.0 | 0.00 | 0.14 | 0.00 | 73 | 1025.0 |
| 20260906150008 | 65 | 211 | 1.0 | 10.0 | 0.00 | 0.14 | 0.00 | 71 | 1025.0 |
| 20260906145009 | 66 | 181 | 3.0 | 8.0 | 0.00 | 0.14 | 0.00 | 71 | 1024.7 |
| 20260906144006 | 65 | 333 | 2.0 | 10.0 | 0.00 | 0.14 | 0.00 | 71 | 1025.0 |
| 20260906143005 | 65 | 161 | 0.0 | 13.0 | 0.00 | 0.14 | 0.00 | 74 | 1024.9 |
| 20260906141019 | 65 | 204 | 2.0 | 8.0 | 0.00 | 0.14 | 0.00 | 73 | 1024.9 |
| 20260906140005 | 65 | 214 | 4.0 | 9.0 | 0.00 | 0.18 | 0.00 | 73 | 1025.0 |
| 20260906135007 | 66 | 269 | 4.0 | 10.0 | 0.00 | 0.26 | 0.00 | 72 | 1025.0 |
| 20260906134020 | 65 | 337 | 1.0 | 8.0 | 0.00 | 0.26 | 0.00 | 73 | 1024.9 |
| 20260906133006 | 63 | 235 | 2.0 | 8.0 | 0.00 | 0.26 | 0.00 | 76 | 1024.8 |
| 20260906132011 | 62 | 270 | 4.0 | 9.0 | 0.00 | 0.26 | 0.00 | 77 | 1024.7 |
| 20260906131021 | 62 | 167 | 2.0 | 13.0 | 0.00 | 0.26 | 0.00 | 78 | 1024.6 |
| 20260906130009 | 64 | 148 | 2.0 | 10.0 | 0.00 | 0.26 | 0.00 | 76 | 1024.9 |
| 20260906125006 | 64 | 208 | 2.0 | 11.0 | 0.00 | 0.26 | 0.00 | 73 | 1024.6 |
| 20260906124007 | 62 | 238 | 1.0 | 9.0 | 0.00 | 0.26 | 0.00 | 78 | 1024.8 |
| 20260906123006 | 63 | 143 | 1.0 | 9.0 | 0.00 | 0.26 | 0.00 | 79 | 1024.3 |
| 20260906122010 | 62 | 153 | 0.0 | 13.0 | 0.00 | 0.26 | 0.00 | 79 | 1024.5 |
| 20260906121020 | 62 | 258 | 4.0 | 10.0 | 0.00 | 0.26 | 0.00 | 79 | 1024.4 |
| 20260906114005 | 60 | 218 | 0.0 | 9.0 | 0.00 | 0.26 | 0.00 | 82 | 1024.2 |
| 20260906113007 | 60 | 111 | 0.0 | 8.0 | 0.00 | 0.26 | 0.00 | 83 | 1024.0 |
| 20260906111005 | 59 | 122 | 0.0 | 8.0 | 0.00 | 0.26 | 0.00 | 83 | 1024.4 |
| 20260906110018 | 59 | 175 | 3.0 | 13.0 | 0.00 | 0.26 | 0.00 | 81 | 1023.9 |
| 20260906105007 | 59 | 218 | 3.0 | 7.0 | 0.00 | 0.26 | 0.00 | 83 | 1023.9 |
| 20260906103005 | 59 | 153 | 2.0 | 6.0 | 0.00 | 0.26 | 0.00 | 84 | 1023.5 |
| 20260906102005 | 59 | 341 | 2.0 | 10.0 | 0.00 | 0.26 | 0.00 | 83 | 1023.4 |
| 20260906101007 | 59 | 129 | 2.0 | 10.0 | 0.00 | 0.26 | 0.00 | 83 | 1023.3 |
| 20260906100006 | 59 | 228 | 5.0 | 13.0 | 0.00 | 0.26 | 0.00 | 83 | 1023.0 |
| 20260906095004 | 59 | 268 | 4.0 | 7.0 | 0.00 | 0.26 | 0.00 | 84 | 1023.0 |
| 20260906093007 | 59 | 232 | 3.0 | 10.0 | 0.00 | 0.26 | 0.00 | 83 | 1022.7 |
| 20260906092005 | 59 | 172 | 2.0 | 7.0 | 0.00 | 0.26 | 0.00 | 85 | 1022.7 |
| 20260906091006 | 58 | 268 | 3.0 | 10.0 | 0.00 | 0.26 | 0.00 | 85 | 1022.8 |
| 20260906090006 | 59 | 274 | 4.0 | 11.0 | 0.00 | 0.26 | 0.00 | 84 | 1022.4 |
| 20260906084005 | 61 | 164 | 0.0 | 11.0 | 0.00 | 0.26 | 0.00 | 83 | 1022.0 |
| 20260906083013 | 59 | 244 | 4.0 | 9.0 | 0.00 | 0.26 | 0.00 | 83 | 1022.2 |
| 20260906082005 | 59 | 236 | 1.0 | 11.0 | 0.00 | 0.26 | 0.00 | 85 | 1021.9 |
| 20260906081007 | 58 | 137 | 2.0 | 9.0 | 0.00 | 0.26 | 0.00 | 86 | 1022.1 |
| 20260906075007 | 58 | 273 | 6.0 | 11.0 | 0.00 | 0.26 | 0.00 | 86 | 1021.4 |
| 20260906074005 | 57 | 225 | 1.0 | 11.0 | 0.00 | 0.26 | 0.00 | 87 | 1021.8 |
| 20260906073005 | 56 | 219 | 3.0 | 9.0 | 0.00 | 0.26 | 0.00 | 88 | 1021.5 |
| 20260906072005 | 56 | 187 | 4.0 | 10.0 | 0.00 | 0.26 | 0.00 | 89 | 1021.6 |
| 20260906071007 | 56 | 240 | 4.0 | 10.0 | 0.00 | 0.26 | 0.00 | 89 | 1021.3 |
| 20260906070005 | 56 | 236 | 3.0 | 11.0 | 0.00 | 0.26 | 0.00 | 89 | 1021.4 |
| 20260906065005 | 56 | 142 | 0.0 | 8.0 | 0.00 | 0.26 | 0.00 | 89 | 1021.1 |
| 20260906064007 | 56 | 239 | 4.0 | 9.0 | 0.00 | 0.26 | 0.00 | 89 | 1020.9 |
| 20260906063007 | 56 | 204 | 5.0 | 13.0 | 0.00 | 0.26 | 0.00 | 89 | 1020.9 |
| 20260906062005 | 56 | 57 | 3.0 | 11.0 | 0.00 | 0.26 | 0.00 | 89 | 1020.6 |
| 20260906061007 | 56 | 153 | 1.0 | 9.0 | 0.00 | 0.26 | 0.00 | 89 | 1020.6 |
| 20260906060008 | 56 | 23 | 2.0 | 8.0 | 0.00 | 0.26 | 0.00 | 89 | 1020.7 |
| 20260906055007 | 55 | 191 | 4.0 | 8.0 | 0.00 | 0.26 | 0.00 | 90 | 1020.2 |
| 20260906052005 | 55 | 248 | 6.0 | 9.0 | 0.00 | 0.26 | 0.00 | 91 | 1020.0 |
| 20260906051007 | 55 | 194 | 4.0 | 10.0 | 0.00 | 0.26 | 0.00 | 91 | 1020.0 |
| 20260906050006 | 55 | 124 | 0.0 | 9.0 | 0.00 | 0.26 | 0.00 | 91 | 1019.9 |
| 20260906045005 | 55 | 308 | 5.0 | 11.0 | 0.00 | 0.26 | 0.00 | 91 | 1019.7 |
| 20260906044012 | 55 | 181 | 2.0 | 14.0 | 0.00 | 0.26 | 0.00 | 91 | 1019.8 |
| 20260906043007 | 55 | 208 | 6.0 | 10.0 | 0.00 | 0.26 | 0.00 | 91 | 1019.7 |
| 20260906042005 | 55 | 172 | 5.0 | 10.0 | 0.00 | 0.26 | 0.00 | 92 | 1019.6 |
| 20260906041007 | 54 | 143 | 0.0 | 14.0 | 0.00 | 0.26 | 0.00 | 91 | 1019.3 |
| 20260906040006 | 54 | 186 | 7.0 | 11.0 | 0.00 | 0.26 | 0.00 | 92 | 1019.2 |
| 20260906035007 | 55 | 144 | 1.0 | 10.0 | 0.00 | 0.26 | 0.00 | 91 | 1019.3 |
| 20260906034005 | 55 | 181 | 1.0 | 11.0 | 0.00 | 0.26 | 0.00 | 92 | 1019.1 |
| 20260906033006 | 55 | 262 | 2.0 | 14.0 | 0.00 | 0.26 | 0.00 | 92 | 1019.2 |
| 20260906032006 | 55 | 178 | 2.0 | 11.0 | 0.00 | 0.26 | 0.00 | 93 | 1019.0 |
| 20260906031007 | 55 | 274 | 1.0 | 7.0 | 0.00 | 0.26 | 0.00 | 93 | 1018.7 |
| 20260906030013 | 55 | 11 | 1.0 | 10.0 | 0.00 | 0.26 | 0.00 | 93 | 1018.8 |
| 20260906025005 | 55 | 129 | 1.0 | 8.0 | 0.00 | 0.26 | 0.00 | 93 | 1018.6 |
| 20260906024007 | 55 | 115 | 1.0 | 8.0 | 0.00 | 0.26 | 0.00 | 93 | 1018.8 |
| 20260906021005 | 55 | 58 | 2.0 | 9.0 | 0.00 | 0.26 | 0.00 | 93 | 1018.4 |
| 20260906020005 | 55 | 15 | 3.0 | 9.0 | 0.00 | 0.26 | 0.00 | 93 | 1018.5 |
| 20260906015005 | 56 | 291 | 3.0 | 9.0 | 0.00 | 0.26 | 0.00 | 93 | 1018.2 |
| 20260906013007 | 55 | 246 | 2.0 | 9.0 | 0.00 | 0.26 | 0.00 | 94 | 1018.4 |
| 20260906010011 | 55 | 135 | 1.0 | 7.0 | 0.00 | 0.26 | 0.00 | 95 | 1018.2 |
| 20260906005005 | 55 | 258 | 5.0 | 11.0 | 0.00 | 0.26 | 0.00 | 95 | 1018.3 |
| 20260906004007 | 55 | 111 | 2.0 | 10.0 | 0.00 | 0.26 | 0.00 | 95 | 1018.3 |
| 20260906003007 | 55 | 260 | 3.0 | 8.0 | 0.00 | 0.26 | 0.00 | 96 | 1018.4 |
| 20260906001005 | 55 | 327 | 3.0 | 9.0 | 0.00 | 0.26 | 0.00 | 96 | 1018.1 |
| 20260906000007 | 55 | 111 | 0.0 | 10.0 | 0.00 | 0.26 | 0.00 | 96 | 1018.4 |
| 20260905235005 | 55 | 68 | 2.0 | 8.0 | 0.00 | 0.26 | 0.00 | 96 | 1018.1 |
| 20260905234005 | 55 | 260 | 2.0 | 9.0 | 0.00 | 0.26 | 0.00 | 96 | 1018.2 |
| 20260905233007 | 55 | 223 | 3.0 | 7.0 | 0.00 | 0.26 | 0.00 | 97 | 1018.2 |
| 20260905232005 | 55 | 140 | 1.0 | 10.0 | 0.00 | 0.26 | 0.00 | 97 | 1018.0 |
| 20260905230005 | 55 | 305 | 3.0 | 8.0 | 0.00 | 0.26 | 0.00 | 97 | 1018.0 |
| 20260905225009 | 55 | 170 | 2.0 | 8.0 | 0.00 | 0.26 | 0.00 | 98 | 1018.0 |
| 20260905224005 | 55 | 265 | 4.0 | 8.0 | 0.00 | 0.26 | 0.00 | 98 | 1017.9 |
| 20260905222005 | 55 | 269 | 2.0 | 9.0 | 0.00 | 0.27 | 0.00 | 98 | 1017.8 |
| 20260905221005 | 55 | 182 | 1.0 | 8.0 | 0.00 | 0.27 | 0.00 | 98 | 1017.6 |
| 20260905220005 | 55 | 265 | 2.0 | 10.0 | 0.00 | 0.27 | 0.27 | 98 | 1018.0 |
| 20260905214007 | 55 | 229 | 3.0 | 9.0 | 0.00 | 0.27 | 0.27 | 98 | 1017.5 |
| 20260905212005 | 55 | 139 | 0.0 | 4.0 | 0.00 | 0.27 | 0.27 | 99 | 1017.3 |
| 20260905211007 | 54 | 152 | 2.0 | 8.0 | 0.00 | 0.27 | 0.27 | 99 | 1017.4 |
| 20260905204008 | 54 | 130 | 0.0 | 4.0 | 0.01 | 0.26 | 0.27 | 98 | 1017.2 |
| 20260905203007 | 54 | 151 | 3.0 | 3.0 | 0.01 | 0.26 | 0.27 | 98 | 1017.1 |
| 20260905202019 | 54 | 188 | 0.0 | 6.0 | 0.01 | 0.26 | 0.27 | 98 | 1017.0 |
| 20260905201005 | 54 | 234 | 2.0 | 4.0 | 0.01 | 0.26 | 0.27 | 98 | 1016.9 |
| 20260905200005 | 54 | 138 | 1.0 | 4.0 | 0.00 | 0.26 | 0.26 | 98 | 1016.7 |
| 20260905195009 | 54 | 268 | 2.0 | 6.0 | 0.00 | 0.26 | 0.26 | 99 | 1017.1 |
| 20260905194004 | 54 | 123 | 1.0 | 4.0 | 0.00 | 0.26 | 0.26 | 98 | 1016.8 |
| 20260905193006 | 54 | 0 | 0.0 | 4.0 | 0.02 | 0.27 | 0.26 | 98 | 1016.8 |
| 20260905192007 | 54 | 157 | 1.0 | 4.0 | 0.03 | 0.29 | 0.26 | 98 | 1016.6 |
| 20260905191007 | 54 | 126 | 0.0 | 2.0 | 0.03 | 0.37 | 0.26 | 98 | 1016.4 |
| 20260905190005 | 55 | 91 | 0.0 | 6.0 | 0.03 | 0.38 | 0.26 | 97 | 1016.4 |
| 20260905185005 | 55 | 254 | 1.0 | 7.0 | 0.03 | 0.38 | 0.26 | 97 | 1016.6 |
| 20260905184007 | 55 | 178 | 4.0 | 7.0 | 0.03 | 0.38 | 0.26 | 96 | 1016.7 |
| 20260905183007 | 56 | 249 | 4.0 | 13.0 | 0.01 | 0.38 | 0.24 | 95 | 1016.9 |
| 20260905182007 | 56 | 200 | 2.0 | 14.0 | 0.00 | 0.38 | 0.23 | 95 | 1016.8 |
| 20260905181005 | 56 | 131 | 1.0 | 10.0 | 0.03 | 0.38 | 0.23 | 98 | 1016.7 |
| 20260905180007 | 55 | 144 | 0.0 | 0.0 | 0.03 | 0.35 | 0.23 | 98 | 1016.0 |
| 20260905175005 | 56 | 151 | 0.0 | 3.0 | 0.03 | 0.35 | 0.23 | 98 | 1016.0 |
| 20260905174006 | 56 | 251 | 1.0 | 4.0 | 0.03 | 0.35 | 0.23 | 97 | 1016.1 |
| 20260905173007 | 56 | 131 | 1.0 | 7.0 | 0.03 | 0.35 | 0.23 | 97 | 1016.4 |
| 20260905172005 | 56 | 173 | 1.0 | 8.0 | 0.03 | 0.35 | 0.22 | 97 | 1016.3 |